Portada
METAR-TAF:

METAR-TAF

Aeroports :

Kwajalein, Illes Marshall

latitud: 08-43N, longitud: 167-44E, altitud: 3 m

Observació

L'informe es va fer fa 14 minuts, a les 08:20 UTC
Vent 6 kt del Est/Nord-Est
Temperatura 29°C
Humitat 74%
Pressió 1012 hPa
Visibilitat: 16.1 km
Cel clar

METAR: PKWA 120820Z AUTO 07006KT 10SM CLR 29/24 A2988 RMK AO2 T02860244

Hora: 20:34 (08:34 UTC)

Pronòstic

L'informe es va fer fa 3 hores i 1 minuts, a les 05:33 UTC
Pronòstic vàlid del 12 a les 06 UTC al 13 a les 06 UTC
Vent 10 kt del Est
Visibilitat: 10 km
Escasses núvols a una alçada de 2000 ft
Núvols disperses a una alçada de 5000 ft
A partir de les 12 a les 1200 UTC
Vent 10 kt del Est
Visibilitat: 10 km
Escasses núvols a una alçada de 2000 ft
Núvols disperses a una alçada de 5000 ft
xàfecs en les proximitats

TAF: PKWA 120533Z 1206/1306 08010KT P6SM FEW020 SCT050 FM121200 08010KT P6SM VCSH FEW020 SCT050

Observacions i pronòstics meteorològics de més de 4000 aeroports (METAR i TAF).

Les estacions disponibles són els punts grocs i vermells al mapa.

Posi el ratolí al punt desitjat per veure el nom de l'estació.

Feu clic per veure les observacions i els pronòstics meteorològics.

Per canviar el mapa: feu clic els botons verds amb una creu de color negre per apropar; al botó verd amb un guió per allunyar la imatge; o en les fletxes verdes per a mapes adjacents.


METAR-TAF: